Time;durP1;ratioP1;P1;durP2;ratioP2;P2;SDS_P1;SDS_P2;PMS_P1;PMS_P2;Temp;Humidity;BMP_temperature;BMP_pressure;BME280_temperature;BME280_humidity;BME280_pressure;Samples;Min_cycle;Max_cycle;Signal;HPM_P1;HPM_P2
2022/04/26 03:37:12;;;;;;;0.00;0.00;;;;;;;16.00;66.56;98565.06;5062634;28;20042;-74
2022/04/26 03:39:39;;;;;;;0.05;0.05;;;;;;;15.96;66.36;98555.25;5073149;28;20107;-76
2022/04/26 03:42:05;;;;;;;0.05;0.05;;;;;;;15.95;66.54;98559.84;5086417;28;20031;-75
2022/04/26 03:44:30;;;;;;;0.00;0.00;;;;;;;15.96;66.66;98564.13;5074693;28;20089;-74
2022/04/26 03:46:56;;;;;;;0.00;0.00;;;;;;;15.96;66.83;98566.81;5073037;28;20025;-73
2022/04/26 03:49:22;;;;;;;0.00;0.00;;;;;;;16.03;66.63;98579.00;5078684;28;20111;-72
2022/04/26 03:51:48;;;;;;;0.00;0.00;;;;;;;16.03;67.07;98582.50;5077789;28;20043;-74
2022/04/26 03:54:13;;;;;;;0.10;0.10;;;;;;;16.02;67.13;98575.53;5073139;28;20454;-76
2022/04/26 03:56:39;;;;;;;0.10;0.10;;;;;;;16.03;67.11;98577.09;5073096;28;20034;-79
2022/04/26 03:59:04;;;;;;;0.10;0.10;;;;;;;16.13;67.09;98582.13;5071330;28;20505;-77
2022/04/26 04:01:30;;;;;;;0.00;0.00;;;;;;;16.15;66.88;98576.44;5072590;28;20127;-73
2022/04/26 04:03:56;;;;;;;0.00;0.00;;;;;;;16.20;67.06;98584.34;5076069;28;20475;-82
2022/04/26 04:06:21;;;;;;;0.00;0.00;;;;;;;16.26;66.87;98585.72;5074703;28;20041;-70
2022/04/26 04:08:46;;;;;;;0.00;0.00;;;;;;;16.31;66.76;98582.84;5073845;28;20073;-73
2022/04/26 04:11:12;;;;;;;0.00;0.00;;;;;;;16.44;67.34;98580.22;5072067;28;20165;-73
2022/04/26 04:13:37;;;;;;;0.00;0.00;;;;;;;16.58;66.51;98583.50;5073470;28;20407;-74
2022/04/26 04:16:03;;;;;;;0.10;0.10;;;;;;;16.73;66.60;98587.50;5087320;28;20024;-80
2022/04/26 04:21:12;;;;;;;0.10;0.10;;;;;;;17.29;65.75;98587.25;5085003;28;20077;-96
2022/04/26 04:23:39;;;;;;;0.00;0.00;;;;;;;17.66;65.12;98586.59;5053478;28;20052;-71
2022/04/26 04:26:04;;;;;;;0.00;0.00;;;;;;;18.10;63.55;98594.25;5069088;28;20024;-73
2022/04/26 04:28:32;;;;;;;0.00;0.00;;;;;;;18.53;61.32;98595.63;5085962;28;20089;-73
2022/04/26 04:30:58;;;;;;;;;;;;;;;19.06;60.36;98596.78;5092878;28;20067;-73
2022/04/26 04:33:23;;;;;;;0.00;0.00;;;;;;;19.56;58.41;98598.16;5092039;28;19961;-73
2022/04/26 04:35:49;;;;;;;0.00;0.00;;;;;;;20.04;57.11;98594.75;5091745;28;20028;-73
2022/04/26 04:38:14;;;;;;;0.10;0.10;;;;;;;20.51;55.75;98606.69;5091707;28;20032;-74
2022/04/26 04:40:39;;;;;;;0.00;0.00;;;;;;;21.04;53.83;98612.53;5092293;28;20028;-71
2022/04/26 04:43:05;;;;;;;0.03;0.03;;;;;;;21.53;52.63;98607.66;5091496;28;20032;-71
2022/04/26 04:45:31;;;;;;;0.00;0.00;;;;;;;22.03;51.91;98610.50;5091854;28;20051;-71
2022/04/26 04:47:56;;;;;;;0.00;0.00;;;;;;;22.52;50.38;98614.41;5091930;28;20107;-71
2022/04/26 04:50:21;;;;;;;0.10;0.10;;;;;;;22.98;48.36;98617.00;5091627;28;20136;-73
2022/04/26 04:52:47;;;;;;;0.10;0.10;;;;;;;23.36;47.23;98613.59;5091926;28;20107;-73
2022/04/26 04:55:13;;;;;;;0.10;0.10;;;;;;;23.67;46.56;98617.81;5091644;28;20066;-71
2022/04/26 04:57:38;;;;;;;0.00;0.00;;;;;;;23.88;45.63;98619.19;5091960;28;20024;-71
2022/04/26 05:00:04;;;;;;;0.00;0.00;;;;;;;24.26;45.37;98622.66;5091687;28;20518;-71
2022/04/26 05:02:30;;;;;;;0.10;0.10;;;;;;;24.63;44.25;98624.47;5091527;28;20024;-72
2022/04/26 05:04:55;;;;;;;0.00;0.00;;;;;;;24.98;43.44;98633.31;5091752;28;20026;-72
2022/04/26 05:07:20;;;;;;;0.00;0.00;;;;;;;25.33;42.87;98629.13;5091343;28;20020;-72
2022/04/26 05:09:46;;;;;;;0.00;0.00;;;;;;;25.67;42.07;98642.56;5091642;28;20028;-72
2022/04/26 05:12:12;;;;;;;0.00;0.00;;;;;;;26.00;41.06;98640.66;5091746;28;20028;-72
2022/04/26 05:14:37;;;;;;;0.00;0.00;;;;;;;26.31;41.49;98636.41;5091610;28;20032;-72
2022/04/26 05:17:02;;;;;;;0.00;0.00;;;;;;;26.58;40.66;98637.94;5091651;28;20024;-72
2022/04/26 05:19:28;;;;;;;0.00;0.00;;;;;;;26.85;40.54;98632.81;5091023;28;20498;-72
2022/04/26 05:21:53;;;;;;;0.00;0.00;;;;;;;27.00;39.92;98634.34;5091340;28;20039;-72
2022/04/26 05:27:03;;;;;;;0.00;0.00;;;;;;;27.17;39.87;98640.16;5091374;28;20093;-72
2022/04/26 05:29:29;;;;;;;0.00;0.00;;;;;;;27.28;39.50;98642.84;5091176;28;20054;-72
2022/04/26 05:31:54;;;;;;;0.20;0.13;;;;;;;27.39;39.47;98649.09;5091374;28;20483;-74
2022/04/26 05:34:19;;;;;;;0.08;0.08;;;;;;;27.58;39.26;98636.09;5091174;28;20107;-72
2022/04/26 05:36:45;;;;;;;0.00;0.00;;;;;;;27.80;38.17;98643.00;5089864;28;20070;-72
2022/04/26 05:39:10;;;;;;;0.00;0.00;;;;;;;27.90;37.69;98638.59;5091214;28;20032;-72
2022/04/26 05:41:36;;;;;;;0.00;0.00;;;;;;;28.21;38.19;98641.56;5091494;28;20056;-72
2022/04/26 05:44:01;;;;;;;0.00;0.00;;;;;;;28.52;35.82;98643.66;5090966;28;20031;-72
2022/04/26 05:46:26;;;;;;;0.28;0.28;;;;;;;28.50;35.43;98644.03;5090764;28;20411;-73
2022/04/26 05:48:52;;;;;;;0.00;0.00;;;;;;;28.48;35.42;98645.66;5090994;28;20452;-72
2022/04/26 05:51:17;;;;;;;0.00;0.00;;;;;;;28.23;35.08;98654.91;5090840;28;20139;-71
2022/04/26 05:53:43;;;;;;;0.00;0.00;;;;;;;27.94;34.90;98653.13;5090797;28;20030;-73
2022/04/26 05:56:10;;;;;;;0.10;0.10;;;;;;;27.67;35.37;98649.38;5090722;28;20028;-73
2022/04/26 05:58:36;;;;;;;0.10;0.10;;;;;;;27.30;35.53;98657.75;5091037;28;20092;-71
2022/04/26 06:01:03;;;;;;;0.05;0.05;;;;;;;27.10;36.68;98657.44;5090984;28;20028;-71
2022/04/26 06:03:28;;;;;;;0.10;0.10;;;;;;;27.04;37.54;98648.06;5090743;28;20028;-73
2022/04/26 06:05:55;;;;;;;0.10;0.10;;;;;;;26.90;38.40;98651.59;5091057;28;20554;-73
2022/04/26 06:08:24;;;;;;;0.10;0.10;;;;;;;26.86;37.22;98653.59;5090779;28;20519;-73
2022/04/26 06:10:49;;;;;;;0.00;0.00;;;;;;;26.75;38.22;98650.09;5090858;28;20090;-73
2022/04/26 06:13:15;;;;;;;0.55;0.45;;;;;;;26.52;36.79;98646.59;5090721;28;20429;-72
2022/04/26 06:15:41;;;;;;;0.15;0.15;;;;;;;26.50;38.20;98661.84;5090948;28;20063;-73
2022/04/26 06:18:06;;;;;;;0.00;0.00;;;;;;;26.42;36.79;98646.59;5090932;28;20028;-73
2022/04/26 06:20:32;;;;;;;0.43;0.35;;;;;;;26.22;36.98;98636.03;5090914;28;20039;-72
2022/04/26 06:22:57;;;;;;;0.00;0.00;;;;;;;26.14;38.41;98648.16;5090745;28;20025;-73
2022/04/26 06:25:23;;;;;;;0.15;0.15;;;;;;;25.93;37.96;98643.38;5090594;28;20491;-73
2022/04/26 06:27:48;;;;;;;0.10;0.10;;;;;;;25.72;39.42;98645.72;5091116;28;20031;-73
2022/04/26 06:30:15;;;;;;;0.00;0.00;;;;;;;25.59;39.69;98646.47;5090539;28;20498;-71
2022/04/26 06:32:42;;;;;;;0.08;0.08;;;;;;;25.27;40.38;98645.16;5090736;28;20372;-73
2022/04/26 06:35:09;;;;;;;0.00;0.00;;;;;;;25.07;40.86;98650.94;5090649;28;20024;-72
2022/04/26 06:37:34;;;;;;;0.32;0.32;;;;;;;24.89;41.27;98655.50;5090500;28;20032;-72
2022/04/26 06:39:59;;;;;;;0.00;0.00;;;;;;;24.76;42.02;98650.38;5090718;28;20032;-73
2022/04/26 06:42:25;;;;;;;0.03;0.03;;;;;;;24.51;39.98;98649.38;5090418;28;20020;-71
2022/04/26 06:44:50;;;;;;;0.10;0.10;;;;;;;24.36;41.13;98648.50;5090683;28;20055;-73
2022/04/26 06:47:16;;;;;;;0.98;0.98;;;;;;;24.36;41.58;98656.69;5089060;28;20078;-71
2022/04/26 06:49:41;;;;;;;0.00;0.00;;;;;;;24.33;41.62;98650.03;5090441;28;20020;-73
2022/04/26 06:52:06;;;;;;;0.32;0.32;;;;;;;24.35;40.61;98652.41;5090569;28;20387;-72
2022/04/26 06:54:32;;;;;;;0.20;0.20;;;;;;;24.20;39.90;98648.78;5090199;28;20078;-72
2022/04/26 06:56:57;;;;;;;0.10;0.10;;;;;;;24.22;40.29;98657.38;5090298;28;20032;-73
2022/04/26 06:59:23;;;;;;;0.30;0.30;;;;;;;24.05;41.52;98658.78;5093934;28;20096;-73
2022/04/26 07:01:52;;;;;;;0.50;0.50;;;;;;;23.93;41.63;98649.69;5094135;28;20028;-72
2022/04/26 07:04:19;;;;;;;0.00;0.00;;;;;;;23.84;41.88;98654.66;5093828;28;20035;-71
2022/04/26 07:06:45;;;;;;;0.13;0.13;;;;;;;23.78;42.04;98659.66;5093754;28;20560;-72
2022/04/26 07:09:10;;;;;;;0.25;0.25;;;;;;;23.65;43.95;98667.31;5094059;28;20039;-73
2022/04/26 07:11:36;;;;;;;0.13;0.13;;;;;;;23.64;44.20;98660.31;5093635;28;20028;-73
2022/04/26 07:14:02;;;;;;;0.20;0.20;;;;;;;23.55;43.37;98656.31;5093897;28;20089;-72
2022/04/26 07:16:27;;;;;;;2.17;0.85;;;;;;;23.47;44.14;98664.41;5093314;28;20031;-71
2022/04/26 07:18:52;;;;;;;0.38;0.38;;;;;;;23.48;44.18;98668.69;5093696;28;20028;-71
2022/04/26 07:21:18;;;;;;;0.10;0.10;;;;;;;23.44;43.55;98667.09;5093387;28;20020;-71
2022/04/26 07:23:43;;;;;;;0.00;0.00;;;;;;;23.38;44.48;98669.34;5093616;28;20528;-71
2022/04/26 07:26:09;;;;;;;0.00;0.00;;;;;;;23.38;44.21;98661.16;5093502;28;20025;-73
2022/04/26 07:28:34;;;;;;;0.88;0.80;;;;;;;23.40;45.46;98668.97;5093428;28;20028;-70
2022/04/26 07:31:00;;;;;;;0.00;0.00;;;;;;;23.39;44.51;98668.19;5093470;28;20031;-73
2022/04/26 07:36:09;;;;;;;0.20;0.20;;;;;;;23.28;40.55;98661.84;5093451;28;20119;-73
2022/04/26 07:38:36;;;;;;;0.15;0.15;;;;;;;23.28;42.07;98667.28;5093131;28;20029;-71
2022/04/26 07:41:01;;;;;;;0.40;0.40;;;;;;;23.25;43.07;98662.56;5093331;28;20073;-71
2022/04/26 07:43:27;;;;;;;0.10;0.10;;;;;;;23.32;39.42;98662.66;5093061;28;20024;-71
2022/04/26 07:45:52;;;;;;;0.13;0.13;;;;;;;23.28;38.96;98670.78;5093330;28;20020;-71
2022/04/26 07:48:18;;;;;;;0.20;0.20;;;;;;;23.36;38.76;98679.84;5092925;28;20395;-72
2022/04/26 07:50:47;;;;;;;0.00;0.00;;;;;;;23.30;37.02;98673.16;5093073;28;20546;-71
2022/04/26 07:53:13;;;;;;;0.10;0.10;;;;;;;23.36;38.29;98679.06;5091933;28;20031;-72
2022/04/26 07:55:39;;;;;;;0.08;0.08;;;;;;;23.33;37.95;98680.59;5092859;28;20032;-71
2022/04/26 07:58:05;;;;;;;0.00;0.00;;;;;;;23.32;37.39;98684.47;5093049;28;20037;-71
2022/04/26 08:00:30;;;;;;;0.00;0.00;;;;;;;23.28;37.86;98670.78;5092801;28;20028;-71
2022/04/26 08:02:56;;;;;;;0.10;0.10;;;;;;;23.32;39.76;98674.34;5092792;28;20081;-71
2022/04/26 08:05:22;;;;;;;0.10;0.10;;;;;;;23.32;40.54;98663.44;5092731;28;20032;-72
2022/04/26 08:07:49;;;;;;;0.05;0.05;;;;;;;23.33;41.30;98669.69;5092878;28;20517;-71
2022/04/26 08:10:15;;;;;;;0.10;0.10;;;;;;;23.42;40.86;98672.91;5092891;28;20119;-71
2022/04/26 08:12:42;;;;;;;0.00;0.00;;;;;;;23.50;41.89;98674.56;5092469;28;20095;-71
2022/04/26 08:15:10;;;;;;;0.65;0.65;;;;;;;23.50;39.79;98669.09;5092624;28;20108;-71
2022/04/26 08:17:35;;;;;;;0.20;0.20;;;;;;;23.60;38.58;98677.81;5092166;28;20024;-72
2022/04/26 08:20:02;;;;;;;0.10;0.10;;;;;;;23.56;38.70;98668.78;5092526;28;20121;-71
2022/04/26 08:22:28;;;;;;;0.08;0.08;;;;;;;23.60;39.22;98672.34;5092263;28;20028;-72
2022/04/26 08:27:38;;;;;;;0.10;0.10;;;;;;;23.66;36.70;98677.06;5091977;28;20525;-72
2022/04/26 08:30:05;;;;;;;0.00;0.00;;;;;;;23.69;37.83;98674.78;5092373;28;20032;-72
2022/04/26 08:32:42;;;;;;;2.45;1.45;;;;;;;23.71;36.82;98675.97;5091776;28;20518;-71
2022/04/26 08:35:10;;;;;;;0.00;0.00;;;;;;;23.71;36.24;98684.16;5092307;28;20540;-72
2022/04/26 08:37:36;;;;;;;0.20;0.15;;;;;;;23.73;34.88;98679.13;5092038;28;20028;-71
2022/04/26 08:40:05;;;;;;;0.10;0.10;;;;;;;23.73;32.96;98684.56;5091887;28;20032;-72
2022/04/26 08:42:41;;;;;;;0.10;0.10;;;;;;;23.62;32.71;98689.91;5091623;28;20028;-71
2022/04/26 08:45:08;;;;;;;0.10;0.10;;;;;;;23.60;33.46;98680.53;5092034;28;20035;-71
2022/04/26 08:53:04;;;;;;;0.10;0.10;;;;;;;23.56;33.64;98677.75;5092034;28;20157;-71
2022/04/26 08:55:33;;;;;;;0.00;0.00;;;;;;;23.58;33.66;98675.44;5091793;28;20118;-72
2022/04/26 08:57:59;;;;;;;0.10;0.10;;;;;;;23.62;34.48;98672.72;5091946;28;20042;-71
2022/04/26 09:00:25;;;;;;;0.00;0.00;;;;;;;23.64;35.03;98682.16;5091485;28;20028;-71
2022/04/26 09:03:04;;;;;;;0.10;0.10;;;;;;;23.54;35.79;98680.06;5091802;28;20454;-71
2022/04/26 09:05:31;;;;;;;0.00;0.00;;;;;;;23.58;35.39;98680.91;5091522;28;20032;-71
2022/04/26 09:07:58;;;;;;;0.10;0.10;;;;;;;23.59;35.50;98671.53;5091816;28;20024;-72
2022/04/26 09:10:25;;;;;;;0.00;0.00;;;;;;;23.60;36.26;98659.47;5091485;28;20028;-71
2022/04/26 09:13:09;;;;;;;0.30;0.30;;;;;;;23.61;35.78;98680.16;5091694;28;20027;-72
2022/04/26 09:15:50;;;;;;;0.10;0.10;;;;;;;23.58;35.91;98672.72;5091366;28;20032;-72
2022/04/26 09:18:20;;;;;;;0.00;0.00;;;;;;;23.60;36.67;98672.34;5091442;28;20486;-72
2022/04/26 09:20:48;;;;;;;0.10;0.10;;;;;;;23.54;36.14;98677.34;5089784;28;20507;-72
2022/04/26 09:23:32;;;;;;;0.20;0.20;;;;;;;23.55;36.85;98668.00;5091349;28;20058;-72
2022/04/26 09:25:58;;;;;;;0.10;0.10;;;;;;;23.64;37.13;98671.22;5091458;28;20024;-73
2022/04/26 09:28:29;;;;;;;0.03;0.03;;;;;;;23.52;36.18;98671.44;5090782;28;20028;-73
2022/04/26 09:30:55;;;;;;;0.13;0.13;;;;;;;23.49;35.93;98661.31;5091293;28;20024;-72
2022/04/26 09:33:37;;;;;;;0.08;0.08;;;;;;;23.64;37.51;98668.50;5091049;28;20077;-72
2022/04/26 09:36:11;;;;;;;0.20;0.20;;;;;;;23.69;36.71;98666.59;5091225;28;20020;-73
2022/04/26 09:38:37;;;;;;;0.10;0.10;;;;;;;23.71;35.93;98669.72;5091345;28;20032;-73
2022/04/26 09:41:05;;;;;;;0.08;0.08;;;;;;;23.69;35.56;98672.81;5091298;28;20024;-72
2022/04/26 09:43:32;;;;;;;0.10;0.10;;;;;;;23.62;35.32;98659.88;5090835;28;20735;-73
2022/04/26 09:45:59;;;;;;;0.00;0.00;;;;;;;23.61;35.79;98654.81;5091134;28;20028;-73
2022/04/26 09:48:38;;;;;;;0.10;0.10;;;;;;;23.62;35.63;98642.72;5090722;28;20477;-72
2022/04/26 09:51:08;;;;;;;0.10;0.10;;;;;;;23.66;35.16;98665.38;5090895;28;20503;-73
2022/04/26 09:53:34;;;;;;;0.05;0.05;;;;;;;23.66;35.02;98640.81;5090399;28;20157;-72
2022/04/26 09:56:01;;;;;;;0.15;0.15;;;;;;;23.69;35.20;98644.75;5089714;28;20020;-72
2022/04/26 09:58:28;;;;;;;0.53;0.50;;;;;;;23.75;34.09;98649.47;5090563;28;20550;-73
2022/04/26 10:00:57;;;;;;;0.00;0.00;;;;;;;23.77;34.65;98638.97;5091028;28;20124;-72
2022/04/26 10:03:30;;;;;;;0.00;0.00;;;;;;;23.74;34.36;98641.66;5091038;28;20169;-73
2022/04/26 10:06:00;;;;;;;0.10;0.10;;;;;;;23.70;35.52;98633.44;5090959;28;20373;-73
2022/04/26 10:08:29;;;;;;;0.10;0.10;;;;;;;23.78;35.06;98629.63;5090391;28;20112;-73
2022/04/26 10:10:56;;;;;;;0.10;0.10;;;;;;;23.86;34.04;98635.94;5091001;28;20024;-72
2022/04/26 10:13:31;;;;;;;0.22;0.22;;;;;;;23.87;33.14;98639.47;5090959;28;20097;-73
2022/04/26 10:16:05;;;;;;;0.00;0.00;;;;;;;23.95;33.17;98627.50;5090963;28;20024;-73
2022/04/26 10:18:47;;;;;;;0.10;0.10;;;;;;;23.98;33.76;98622.03;5090702;28;20032;-73
2022/04/26 10:21:35;;;;;;;0.10;0.10;;;;;;;24.08;33.20;98620.59;5090702;28;20024;-72
2022/04/26 10:24:04;;;;;;;0.00;0.00;;;;;;;24.13;33.50;98614.75;5090507;28;20099;-73
2022/04/26 10:26:30;;;;;;;0.08;0.08;;;;;;;24.14;32.58;98621.81;5090418;28;20399;-73
2022/04/26 10:29:11;;;;;;;0.08;0.08;;;;;;;24.21;31.03;98620.28;5090761;28;20088;-73
2022/04/26 10:31:44;;;;;;;0.10;0.10;;;;;;;24.27;31.12;98608.63;5090498;28;20104;-73
2022/04/26 10:34:24;;;;;;;0.13;0.13;;;;;;;24.36;30.47;98627.41;5094502;28;20055;-72
2022/04/26 10:37:13;;;;;;;0.00;0.00;;;;;;;24.41;31.09;98607.94;5094574;28;20031;-73
2022/04/26 10:40:07;;;;;;;0.10;0.10;;;;;;;24.36;31.36;98602.81;5087580;28;20032;-73
2022/04/26 10:42:35;;;;;;;0.00;0.00;;;;;;;24.42;31.45;98628.63;5085092;28;20542;-73
2022/04/26 10:45:09;;;;;;;0.10;0.10;;;;;;;24.46;30.67;98604.84;5094497;28;20028;-72
2022/04/26 10:47:35;;;;;;;0.10;0.10;;;;;;;24.50;31.46;98613.09;5094089;28;20028;-73
2022/04/26 10:50:02;;;;;;;0.00;0.00;;;;;;;24.53;31.52;98606.06;5094304;28;20133;-72
2022/04/26 10:52:40;;;;;;;0.00;0.00;;;;;;;24.60;32.10;98612.34;5094178;28;20028;-71
2022/04/26 10:55:12;;;;;;;0.05;0.05;;;;;;;24.74;31.23;98616.38;5094333;28;20258;-73
2022/04/26 10:57:42;;;;;;;0.00;0.00;;;;;;;24.72;30.95;98607.78;5094064;28;20020;-72
2022/04/26 11:00:08;;;;;;;0.20;0.20;;;;;;;24.78;31.00;98623.44;5094223;28;20024;-73
2022/04/26 11:02:39;;;;;;;0.10;0.10;;;;;;;24.78;30.99;98619.94;5093983;28;20085;-71
2022/04/26 11:05:11;;;;;;;0.10;0.10;;;;;;;24.82;30.34;98628.91;5093906;28;20081;-73
2022/04/26 11:07:41;;;;;;;0.00;0.00;;;;;;;24.83;30.83;98622.28;5093820;28;20028;-72
2022/04/26 11:10:09;;;;;;;0.00;0.00;;;;;;;24.91;31.25;98606.69;5093959;28;20020;-73
2022/04/26 11:12:39;;;;;;;0.00;0.00;;;;;;;25.01;31.22;98614.19;5093724;28;20106;-73
2022/04/26 11:15:12;;;;;;;0.00;0.00;;;;;;;25.04;30.90;98607.16;5093716;28;20531;-72
2022/04/26 11:17:39;;;;;;;0.00;0.00;;;;;;;25.13;30.96;98602.09;5093255;28;20403;-72
2022/04/26 11:20:10;;;;;;;0.00;0.00;;;;;;;25.21;31.17;98602.94;5093787;28;20394;-72
2022/04/26 11:22:43;;;;;;;0.00;0.00;;;;;;;25.25;29.63;98604.50;5093402;28;20032;-72
2022/04/26 11:28:01;;;;;;;0.00;0.00;;;;;;;25.38;30.71;98598.72;5093476;28;20038;-72
2022/04/26 11:30:32;;;;;;;0.00;0.00;;;;;;;25.39;29.45;98601.06;5093607;28;20454;-72
2022/04/26 11:33:12;;;;;;;0.00;0.00;;;;;;;25.47;29.57;98601.06;5093464;28;20078;-72
2022/04/26 11:35:42;;;;;;;0.00;0.00;;;;;;;25.52;29.28;98597.94;5093360;28;20024;-72
2022/04/26 11:38:14;;;;;;;0.00;0.00;;;;;;;25.61;29.32;98595.63;5093491;28;20028;-72
2022/04/26 11:40:47;;;;;;;0.00;0.00;;;;;;;25.68;29.15;98581.94;5093292;28;20031;-72
2022/04/26 11:43:15;;;;;;;0.00;0.00;;;;;;;25.69;27.97;98594.44;5093049;28;20016;-72
2022/04/26 11:45:44;;;;;;;0.10;0.10;;;;;;;25.75;28.48;98594.09;5093078;28;20032;-72
2022/04/26 11:48:12;;;;;;;0.00;0.00;;;;;;;25.82;28.06;98585.88;5093342;28;20115;-72
2022/04/26 11:50:38;;;;;;;0.00;0.00;;;;;;;25.83;27.63;98573.72;5092725;28;20538;-72
2022/04/26 11:53:13;;;;;;;0.75;0.15;;;;;;;25.86;27.80;98581.19;5093250;28;20052;-72
2022/04/26 11:55:40;;;;;;;0.00;0.00;;;;;;;25.82;28.01;98574.94;5091408;28;20081;-72
2022/04/26 11:58:15;;;;;;;0.10;0.10;;;;;;;25.86;27.39;98568.25;5092799;28;20457;-72
2022/04/26 12:01:03;;;;;;;0.00;0.00;;;;;;;25.85;27.87;98563.19;5092819;28;20067;-72
2022/04/26 12:03:29;;;;;;;0.00;0.00;;;;;;;25.91;27.61;98569.06;5092636;28;20024;-72
2022/04/26 12:05:59;;;;;;;0.00;0.00;;;;;;;25.87;27.38;98567.09;5092687;28;20068;-72
2022/04/26 12:08:26;;;;;;;0.00;0.00;;;;;;;25.81;27.39;98562.41;5092965;28;20123;-72
2022/04/26 12:10:51;;;;;;;0.00;0.00;;;;;;;25.76;27.73;98551.84;5092241;28;20032;-72
2022/04/26 12:13:32;;;;;;;0.00;0.00;;;;;;;25.78;28.41;98555.75;5092848;28;20024;-72
2022/04/26 12:16:20;;;;;;;0.00;0.00;;;;;;;25.81;27.82;98538.53;5092770;28;20410;-72
2022/04/26 12:19:08;;;;;;;0.15;0.15;;;;;;;25.75;27.54;98539.31;5092500;28;20026;-72
2022/04/26 12:21:47;;;;;;;0.00;0.00;;;;;;;25.66;27.48;98548.69;5092458;28;20107;-72
2022/04/26 12:24:17;;;;;;;0.90;0.43;;;;;;;25.63;28.07;98537.72;5092542;28;20020;-72
2022/04/26 12:27:01;;;;;;;0.00;0.00;;;;;;;25.68;27.73;98537.34;5092282;28;20530;-72
2022/04/26 12:29:30;;;;;;;0.00;0.00;;;;;;;25.68;28.18;98535.41;5092197;28;20678;-72
2022/04/26 12:31:57;;;;;;;0.00;0.00;;;;;;;25.74;27.98;98533.03;5092189;28;20051;-72
2022/04/26 12:34:31;;;;;;;0.00;0.00;;;;;;;25.75;27.97;98523.66;5092338;28;20046;-72
2022/04/26 12:36:59;;;;;;;0.00;0.00;;;;;;;25.82;28.11;98529.13;5092124;28;20024;-72
2022/04/26 12:39:36;;;;;;;0.00;0.00;;;;;;;25.89;27.80;98529.13;5092002;28;20494;-72
2022/04/26 12:42:02;;;;;;;0.00;0.00;;;;;;;25.89;28.31;98526.41;5092534;28;20467;-72
2022/04/26 12:44:27;;;;;;;0.00;0.00;;;;;;;25.81;28.18;98521.31;5092196;28;20035;-72
2022/04/26 12:50:30;;;;;;;0.00;0.00;;;;;;;25.83;28.21;98527.16;5091579;28;20031;-72
2022/04/26 12:53:06;;;;;;;0.00;0.00;;;;;;;25.84;29.01;98523.25;5049009;28;20140;-72
2022/04/26 12:55:34;;;;;;;0.00;0.00;;;;;;;25.87;28.46;98527.97;5048399;28;20408;-72
2022/04/26 12:58:04;;;;;;;0.00;0.00;;;;;;;25.85;28.42;98522.09;5076467;28;20041;-72
2022/04/26 13:00:31;;;;;;;0.10;0.10;;;;;;;25.92;28.46;98513.88;5091849;28;20056;-71
2022/04/26 13:03:02;;;;;;;0.00;0.00;;;;;;;25.94;28.77;98514.25;5091699;28;20040;-71
2022/04/26 13:05:29;;;;;;;0.00;0.00;;;;;;;25.99;28.67;98516.59;5091833;28;20410;-72
2022/04/26 13:07:55;;;;;;;0.30;0.30;;;;;;;25.94;28.69;98518.94;5091551;28;20024;-72
2022/04/26 13:10:21;;;;;;;0.00;0.00;;;;;;;25.89;28.56;98522.88;5091660;28;20028;-71
2022/04/26 13:12:46;;;;;;;0.00;0.00;;;;;;;25.85;28.61;98506.44;5091507;28;20031;-71
2022/04/26 13:15:15;;;;;;;0.10;0.10;;;;;;;25.85;28.37;98513.88;5091687;28;20399;-71
2022/04/26 13:17:42;;;;;;;0.00;0.00;;;;;;;25.82;28.71;98499.00;5091633;28;20024;-73
2022/04/26 13:20:10;;;;;;;0.32;0.10;;;;;;;25.84;29.26;98504.88;5091320;28;20406;-71
2022/04/26 13:22:37;;;;;;;0.00;0.00;;;;;;;25.83;29.41;98516.22;5091320;28;20108;-73
2022/04/26 13:25:04;;;;;;;0.00;0.00;;;;;;;25.85;29.73;98506.44;5091186;28;20467;-73
2022/04/26 13:27:34;;;;;;;0.45;0.45;;;;;;;25.93;29.84;98507.22;5091427;28;20056;-73
2022/04/26 13:30:01;;;;;;;0.00;0.00;;;;;;;25.92;29.84;98505.66;5091443;28;20487;-73
2022/04/26 13:32:29;;;;;;;0.00;0.00;;;;;;;25.87;29.81;98517.00;5091175;28;20120;-73
2022/04/26 13:34:55;;;;;;;0.88;0.85;;;;;;;25.86;29.48;98516.22;5091081;28;20055;-73
2022/04/26 13:37:21;;;;;;;0.10;0.10;;;;;;;25.88;30.04;98504.88;5091402;28;20538;-71
2022/04/26 13:39:47;;;;;;;0.00;0.00;;;;;;;25.90;30.11;98513.47;5090688;28;20081;-73
2022/04/26 13:42:13;;;;;;;0.00;0.00;;;;;;;25.89;30.42;98509.19;5091258;28;20020;-71
2022/04/26 13:44:39;;;;;;;0.00;0.00;;;;;;;25.98;30.74;98515.03;5091038;28;20083;-72
2022/04/26 13:47:06;;;;;;;0.00;0.00;;;;;;;26.00;30.51;98523.66;5091303;28;20036;-72
2022/04/26 13:49:34;;;;;;;0.00;0.00;;;;;;;25.98;29.99;98517.78;5091015;28;20110;-71
2022/04/26 13:51:59;;;;;;;;;;;;;;;25.98;30.39;98519.75;5091329;28;20034;-72
2022/04/26 13:54:27;;;;;;;0.00;0.00;;;;;;;25.93;31.08;98511.91;5091165;28;20007;-72
2022/04/26 13:56:56;;;;;;;0.20;0.20;;;;;;;25.85;31.37;98500.19;5090951;28;20032;-72
2022/04/26 13:59:22;;;;;;;0.00;0.00;;;;;;;25.85;32.49;98511.13;5090890;28;20480;-72
2022/04/26 14:01:49;;;;;;;0.10;0.10;;;;;;;25.84;32.49;98504.88;5090738;28;20396;-71
2022/04/26 14:04:15;;;;;;;0.00;0.00;;;;;;;25.86;32.22;98497.03;5090949;28;20038;-72
2022/04/26 14:06:40;;;;;;;0.00;0.00;;;;;;;25.86;32.15;98502.50;5092189;28;20141;-72
2022/04/26 14:09:06;;;;;;;0.22;0.22;;;;;;;25.82;32.15;98498.25;5095250;28;20107;-71
2022/04/26 14:11:32;;;;;;;0.00;0.00;;;;;;;25.80;31.30;98501.34;5095161;28;20024;-72
2022/04/26 14:22:14;;;;;;;0.00;0.00;;;;;;;25.36;33.39;98486.81;5094704;28;20035;-73
2022/04/26 14:24:39;;;;;;;0.00;0.00;;;;;;;25.18;34.32;98477.81;5094677;28;20395;-71
2022/04/26 14:27:05;;;;;;;0.00;0.00;;;;;;;25.00;35.03;98467.63;5094961;28;20465;-72
2022/04/26 14:29:30;;;;;;;0.00;0.00;;;;;;;24.94;32.07;98464.47;5094616;28;20023;-72
2022/04/26 14:31:56;;;;;;;0.10;0.10;;;;;;;24.80;32.34;98461.72;5094556;28;20028;-72
2022/04/26 14:34:22;;;;;;;0.20;0.17;;;;;;;24.71;32.04;98450.38;5095099;28;20460;-72
2022/04/26 14:36:48;;;;;;;0.00;0.00;;;;;;;24.66;32.85;98458.91;5094471;28;20036;-71
2022/04/26 14:39:15;;;;;;;0.05;0.05;;;;;;;24.59;32.74;98444.03;5094719;28;20032;-73
2022/04/26 14:41:41;;;;;;;0.00;0.00;;;;;;;24.58;32.84;98444.41;5094452;28;20039;-73
2022/04/26 14:44:06;;;;;;;0.10;0.10;;;;;;;24.54;33.88;98433.47;5094640;28;20387;-72
2022/04/26 14:46:35;;;;;;;0.10;0.10;;;;;;;24.56;34.44;98441.28;5093169;28;20487;-73
2022/04/26 14:49:02;;;;;;;0.00;0.00;;;;;;;24.56;35.38;98444.00;5094143;28;20093;-73
2022/04/26 14:51:29;;;;;;;0.00;0.00;;;;;;;24.47;35.33;98447.09;5094432;28;20134;-73
2022/04/26 14:53:54;;;;;;;0.00;0.00;;;;;;;24.48;34.96;98445.19;5093868;28;20549;-73
2022/04/26 14:56:20;;;;;;;0.00;0.00;;;;;;;24.49;35.06;98458.44;5093042;28;20028;-73
2022/04/26 14:58:49;;;;;;;0.10;0.10;;;;;;;24.56;34.99;98461.22;5094289;28;20024;-73
2022/04/26 15:01:14;;;;;;;0.00;0.00;;;;;;;24.63;35.06;98463.19;5094529;28;20480;-73
2022/04/26 15:03:40;;;;;;;0.20;0.20;;;;;;;24.66;34.59;98469.84;5094432;28;20030;-73
2022/04/26 15:06:06;;;;;;;0.00;0.00;;;;;;;24.64;34.73;98475.69;5092452;28;20541;-72
2022/04/26 15:11:15;;;;;;;0.00;0.00;;;;;;;24.63;34.51;98482.31;5093778;28;20170;-72
2022/04/26 15:16:40;;;;;;;0.00;0.00;;;;;;;24.67;34.29;98490.56;5093485;28;20042;-72
2022/04/26 15:19:07;;;;;;;0.00;0.00;;;;;;;24.67;34.08;98494.09;5092687;28;20111;-72
2022/04/26 15:21:33;;;;;;;0.00;0.00;;;;;;;24.66;33.68;98497.19;5093734;28;20032;-72
2022/04/26 15:23:59;;;;;;;0.10;0.10;;;;;;;24.66;33.30;98497.19;5093443;28;20047;-72
2022/04/26 15:26:25;;;;;;;0.30;0.30;;;;;;;24.57;33.71;98501.06;5093721;28;20032;-72
2022/04/26 15:28:51;;;;;;;0.00;0.00;;;;;;;24.49;34.21;98504.16;5093794;28;20032;-72
2022/04/26 15:31:19;;;;;;;0.00;0.00;;;;;;;24.42;34.92;98502.91;5093648;28;20039;-72
2022/04/26 15:33:48;;;;;;;0.00;0.00;;;;;;;24.40;34.98;98524.41;5093468;28;20024;-72
2022/04/26 15:36:15;;;;;;;0.08;0.03;;;;;;;24.41;35.10;98585.28;5093787;28;20032;-72
2022/04/26 15:38:42;;;;;;;0.00;0.00;;;;;;;24.34;35.91;98590.69;5093245;28;20028;-71
2022/04/26 15:41:07;;;;;;;0.00;0.00;;;;;;;24.19;37.77;98587.09;5093138;28;20034;-72
2022/04/26 15:43:33;;;;;;;0.00;0.00;;;;;;;23.97;38.96;98593.19;5093384;28;20103;-72
2022/04/26 15:46:02;;;;;;;0.10;0.10;;;;;;;23.62;43.12;98585.38;5091691;28;20020;-72
2022/04/26 15:48:27;;;;;;;0.05;0.05;;;;;;;23.28;47.29;98582.72;5086937;28;20094;-72
2022/04/26 15:50:53;;;;;;;0.10;0.10;;;;;;;22.96;47.47;98604.88;5072102;28;20488;-72